Time;durP1;ratioP1;P1;durP2;ratioP2;P2;SDS_P1;SDS_P2;PMS_P1;PMS_P2;Temp;Humidity;BMP_temperature;BMP_pressure;BME280_temperature;BME280_humidity;BME280_pressure;Samples;Min_cycle;Max_cycle;Signal;HPM_P1;HPM_P2
2022/02/14 00:01:10;;;;;;;9.05;3.83;;;;;;;;;;4976154;28;20437;-84
2022/02/14 00:03:35;;;;;;;8.55;3.13;;;;;;;;;;4978005;28;20157;-86
2022/02/14 00:06:00;;;;;;;7.95;3.08;;;;;;;;;;4975675;28;20061;-78
2022/02/14 00:08:26;;;;;;;7.47;3.03;;;;;;;;;;4976851;28;20548;-83
2022/02/14 00:10:51;;;;;;;9.60;3.55;;;;;;;;;;4976092;28;20061;-83
2022/02/14 00:13:17;;;;;;;6.97;3.05;;;;;;;;;;4978148;28;20088;-82
2022/02/14 00:15:43;;;;;;;6.35;3.03;;;;;;;;;;4979587;28;20030;-83
2022/02/14 00:18:08;;;;;;;10.52;2.92;;;;;;;;;;4979310;28;20062;-79
2022/02/14 00:20:34;;;;;;;11.40;3.00;;;;;;;;;;4977632;28;20418;-85
2022/02/14 00:22:59;;;;;;;9.93;3.75;;;;;;;;;;4980542;28;20037;-79
2022/02/14 00:25:25;;;;;;;10.25;3.58;;;;;;;;;;4980537;28;20039;-82
2022/02/14 00:27:50;;;;;;;7.55;3.00;;;;;;;;;;4978384;28;20034;-82
2022/02/14 00:30:15;;;;;;;6.53;3.20;;;;;;;;;;4975520;28;20057;-82
2022/02/14 00:32:41;;;;;;;9.38;2.92;;;;;;;;;;4980987;28;20081;-84
2022/02/14 00:35:07;;;;;;;7.35;3.63;;;;;;;;;;4975305;28;20077;-82
2022/02/14 00:37:32;;;;;;;9.30;3.30;;;;;;;;;;4989710;28;20035;-85
2022/02/14 00:39:58;;;;;;;7.72;2.83;;;;;;;;;;4980075;28;20049;-79
2022/02/14 00:42:24;;;;;;;6.35;2.67;;;;;;;;;;4982623;28;20469;-83
2022/02/14 00:44:49;;;;;;;7.97;3.00;;;;;;;;;;4974884;28;20023;-85
2022/02/14 00:47:15;;;;;;;6.43;2.80;;;;;;;;;;4978643;28;20041;-78
2022/02/14 00:49:41;;;;;;;6.30;2.67;;;;;;;;;;4976536;28;20038;-83
2022/02/14 00:52:07;;;;;;;7.68;2.80;;;;;;;;;;4980502;28;20026;-83
2022/02/14 00:54:33;;;;;;;6.70;2.92;;;;;;;;;;4973559;28;20036;-83
2022/02/14 00:56:59;;;;;;;7.50;2.58;;;;;;;;;;4980634;28;20042;-84
2022/02/14 00:59:24;;;;;;;6.80;2.53;;;;;;;;;;4979006;28;20034;-85
2022/02/14 01:01:49;;;;;;;6.55;2.70;;;;;;;;;;4976166;28;20046;-80
2022/02/14 01:04:15;;;;;;;6.90;3.13;;;;;;;;;;4984005;28;20235;-82
2022/02/14 01:06:41;;;;;;;8.18;2.60;;;;;;;;;;4981016;28;20620;-85
2022/02/14 01:09:07;;;;;;;6.07;2.80;;;;;;;;;;4983819;28;20168;-81
2022/02/14 01:11:32;;;;;;;5.68;2.35;;;;;;;;;;4998181;28;20042;-83
2022/02/14 01:13:57;;;;;;;8.05;2.75;;;;;;;;;;4984784;28;20030;-84
2022/02/14 01:16:23;;;;;;;4.82;2.72;;;;;;;;;;4978495;28;20030;-82
2022/02/14 01:18:49;;;;;;;6.50;3.20;;;;;;;;;;4983251;28;20033;-82
2022/02/14 01:21:15;;;;;;;5.32;2.65;;;;;;;;;;4977274;28;20172;-82
2022/02/14 01:23:40;;;;;;;6.40;2.95;;;;;;;;;;4977360;28;20023;-79
2022/02/14 01:26:05;;;;;;;7.95;2.55;;;;;;;;;;4996485;28;20583;-80
2022/02/14 01:28:31;;;;;;;6.28;2.50;;;;;;;;;;4977911;28;20022;-83
2022/02/14 01:30:56;;;;;;;7.53;2.78;;;;;;;;;;4980519;28;20446;-84
2022/02/14 01:33:22;;;;;;;5.95;2.47;;;;;;;;;;4984114;28;20100;-78
2022/02/14 01:35:47;;;;;;;6.10;2.50;;;;;;;;;;4977809;28;20065;-82
2022/02/14 01:38:13;;;;;;;6.63;2.40;;;;;;;;;;4978698;28;20053;-82
2022/02/14 01:40:38;;;;;;;10.40;2.80;;;;;;;;;;4978500;28;20044;-78
2022/02/14 01:43:04;;;;;;;7.93;2.60;;;;;;;;;;4983063;28;20026;-83
2022/02/14 01:45:29;;;;;;;5.25;2.08;;;;;;;;;;4997975;28;20064;-79
2022/02/14 01:47:55;;;;;;;4.60;1.98;;;;;;;;;;4981491;28;20262;-81
2022/02/14 01:50:20;;;;;;;8.57;2.65;;;;;;;;;;4981503;28;20768;-85
2022/02/14 01:52:46;;;;;;;6.97;2.22;;;;;;;;;;4979603;28;20147;-82
2022/02/14 01:55:13;;;;;;;7.22;2.53;;;;;;;;;;4986563;28;20021;-84
2022/02/14 01:57:39;;;;;;;5.80;2.55;;;;;;;;;;4980243;28;20030;-83
2022/02/14 02:00:11;;;;;;;4.50;2.28;;;;;;;;;;4982338;28;20034;-82
2022/02/14 02:02:37;;;;;;;5.70;2.13;;;;;;;;;;4980251;28;20262;-83
2022/02/14 02:05:03;;;;;;;6.30;2.03;;;;;;;;;;4984735;28;20046;-83
2022/02/14 02:07:28;;;;;;;6.07;2.00;;;;;;;;;;4980166;28;20053;-85
2022/02/14 02:09:54;;;;;;;4.68;2.50;;;;;;;;;;4979472;28;20085;-82
2022/02/14 02:12:22;;;;;;;4.82;2.17;;;;;;;;;;4982913;28;20475;-82
2022/02/14 02:15:02;;;;;;;5.63;1.90;;;;;;;;;;4983708;28;20525;-81
2022/02/14 02:17:33;;;;;;;9.65;2.30;;;;;;;;;;4978852;28;20035;-79
2022/02/14 02:19:59;;;;;;;6.53;2.38;;;;;;;;;;4978101;28;20057;-82
2022/02/14 02:22:25;;;;;;;5.43;2.20;;;;;;;;;;4980904;28;20192;-83
2022/02/14 02:24:53;;;;;;;6.40;2.30;;;;;;;;;;4976664;28;20037;-80
2022/02/14 02:27:21;;;;;;;6.95;2.50;;;;;;;;;;4994237;28;20058;-82
2022/02/14 02:29:47;;;;;;;4.97;2.03;;;;;;;;;;4975516;28;20038;-79
2022/02/14 02:32:12;;;;;;;6.40;2.00;;;;;;;;;;4976419;28;20033;-82
2022/02/14 02:34:39;;;;;;;7.68;2.97;;;;;;;;;;4983128;28;20034;-82
2022/02/14 02:37:07;;;;;;;7.97;2.45;;;;;;;;;;4981474;28;20237;-79
2022/02/14 02:39:34;;;;;;;5.70;2.25;;;;;;;;;;4997078;28;20026;-78
2022/02/14 02:41:59;;;;;;;5.53;2.20;;;;;;;;;;4980409;28;20036;-78
2022/02/14 02:44:25;;;;;;;6.32;2.60;;;;;;;;;;4981363;28;20113;-79
2022/02/14 02:46:50;;;;;;;9.15;3.05;;;;;;;;;;4980461;28;20058;-82
2022/02/14 02:49:19;;;;;;;8.10;2.00;;;;;;;;;;4979766;28;20034;-79
2022/02/14 02:51:46;;;;;;;6.30;2.63;;;;;;;;;;4980772;28;20064;-82
2022/02/14 02:54:12;;;;;;;6.32;2.05;;;;;;;;;;4981193;28;20495;-79
2022/02/14 02:56:40;;;;;;;5.60;2.15;;;;;;;;;;4983372;28;20026;-85
2022/02/14 02:59:06;;;;;;;3.92;2.10;;;;;;;;;;4980410;28;20476;-79
2022/02/14 03:01:32;;;;;;;6.95;2.17;;;;;;;;;;4978630;28;20026;-79
2022/02/14 03:03:58;;;;;;;6.40;2.13;;;;;;;;;;4979242;28;20022;-84
2022/02/14 03:06:24;;;;;;;7.25;2.17;;;;;;;;;;4983090;28;20042;-83
2022/02/14 03:08:50;;;;;;;7.28;2.38;;;;;;;;;;4980330;28;20041;-84
2022/02/14 03:11:19;;;;;;;8.38;2.40;;;;;;;;;;4979439;28;20050;-82
2022/02/14 03:13:46;;;;;;;5.97;2.03;;;;;;;;;;4981629;28;20030;-78
2022/02/14 03:16:12;;;;;;;4.80;2.10;;;;;;;;;;4978207;28;20038;-86
2022/02/14 03:18:38;;;;;;;7.72;2.20;;;;;;;;;;4979418;28;20037;-82
2022/02/14 03:21:04;;;;;;;6.63;2.30;;;;;;;;;;4979120;28;20034;-79
2022/02/14 03:23:30;;;;;;;4.38;1.90;;;;;;;;;;4979626;28;20052;-83
2022/02/14 03:25:55;;;;;;;5.10;2.00;;;;;;;;;;4998276;28;20416;-82
2022/02/14 03:28:20;;;;;;;6.82;2.30;;;;;;;;;;4979796;28;20085;-82
2022/02/14 03:30:46;;;;;;;4.57;1.95;;;;;;;;;;4978656;28;20037;-85
2022/02/14 03:33:11;;;;;;;4.20;2.13;;;;;;;;;;4998023;28;20038;-78
2022/02/14 03:35:37;;;;;;;4.85;2.15;;;;;;;;;;4982641;28;20396;-83
2022/02/14 03:38:06;;;;;;;7.38;2.13;;;;;;;;;;4977927;28;20030;-79
2022/02/14 03:40:36;;;;;;;5.68;2.20;;;;;;;;;;4980127;28;22060;-83
2022/02/14 03:43:02;;;;;;;6.47;2.20;;;;;;;;;;4974655;28;20046;-82
2022/02/14 03:45:29;;;;;;;5.38;2.13;;;;;;;;;;4978082;28;20077;-83
2022/02/14 03:47:55;;;;;;;8.43;2.20;;;;;;;;;;4981596;28;20116;-85
2022/02/14 03:50:20;;;;;;;5.32;2.15;;;;;;;;;;4983096;28;21688;-84
2022/02/14 03:52:45;;;;;;;5.13;2.00;;;;;;;;;;4975058;28;20058;-79
2022/02/14 03:55:11;;;;;;;6.50;1.92;;;;;;;;;;4979633;28;20034;-82
2022/02/14 03:57:37;;;;;;;6.38;1.75;;;;;;;;;;4977751;28;20387;-82
2022/02/14 04:00:08;;;;;;;6.85;1.77;;;;;;;;;;4991506;28;20030;-83
2022/02/14 04:02:34;;;;;;;6.18;2.13;;;;;;;;;;4979196;28;20038;-82
2022/02/14 04:05:00;;;;;;;4.55;2.03;;;;;;;;;;4979846;28;20438;-83
2022/02/14 04:07:26;;;;;;;5.88;1.92;;;;;;;;;;4979082;28;20035;-82
2022/02/14 04:09:51;;;;;;;6.43;1.92;;;;;;;;;;4981589;28;20117;-78
2022/02/14 04:12:16;;;;;;;4.72;1.80;;;;;;;;;;4977890;28;20563;-82
2022/02/14 04:14:42;;;;;;;6.15;2.08;;;;;;;;;;4980448;28;20023;-81
2022/02/14 04:17:07;;;;;;;4.53;1.95;;;;;;;;;;4977797;28;20034;-82
2022/02/14 04:19:32;;;;;;;8.40;2.10;;;;;;;;;;4976590;28;20076;-85
2022/02/14 04:21:57;;;;;;;5.45;1.90;;;;;;;;;;4977234;28;20066;-83
2022/02/14 04:24:23;;;;;;;6.30;1.90;;;;;;;;;;4976921;28;20488;-79
2022/02/14 04:26:48;;;;;;;7.85;1.95;;;;;;;;;;4980302;28;20046;-82
2022/02/14 04:29:13;;;;;;;4.57;1.75;;;;;;;;;;4977640;28;20129;-79
2022/02/14 04:31:39;;;;;;;5.75;2.22;;;;;;;;;;4979353;28;20585;-81
2022/02/14 04:34:04;;;;;;;4.60;1.90;;;;;;;;;;4976826;28;20030;-78
2022/02/14 04:36:30;;;;;;;5.55;1.90;;;;;;;;;;4978427;28;20049;-84
2022/02/14 04:38:55;;;;;;;4.10;1.95;;;;;;;;;;4979248;28;20484;-82
2022/02/14 04:41:20;;;;;;;4.07;1.50;;;;;;;;;;4978303;28;20501;-82
2022/02/14 04:43:46;;;;;;;5.55;2.67;;;;;;;;;;4973105;28;20041;-78
2022/02/14 04:46:11;;;;;;;4.18;1.75;;;;;;;;;;4979516;28;20628;-85
2022/02/14 04:48:36;;;;;;;3.95;1.90;;;;;;;;;;4976471;28;20039;-82
2022/02/14 04:51:03;;;;;;;7.50;2.05;;;;;;;;;;4974691;28;20109;-82
2022/02/14 04:53:28;;;;;;;5.65;1.90;;;;;;;;;;4978008;28;20022;-79
2022/02/14 04:55:53;;;;;;;6.07;1.92;;;;;;;;;;4978121;28;20485;-85
2022/02/14 04:58:19;;;;;;;5.80;1.85;;;;;;;;;;4974415;28;20240;-78
2022/02/14 05:00:44;;;;;;;6.95;2.17;;;;;;;;;;4975842;28;20629;-82
2022/02/14 05:03:09;;;;;;;5.60;1.70;;;;;;;;;;4976734;28;20113;-85
2022/02/14 05:05:35;;;;;;;5.70;1.90;;;;;;;;;;4980322;28;20475;-84
2022/02/14 05:08:00;;;;;;;3.78;1.73;;;;;;;;;;4977179;28;20034;-78
2022/02/14 05:10:26;;;;;;;3.83;1.70;;;;;;;;;;4978538;28;20117;-79
2022/02/14 05:12:51;;;;;;;7.70;2.05;;;;;;;;;;4978822;28;20059;-82
2022/02/14 05:15:16;;;;;;;4.63;1.80;;;;;;;;;;4979470;28;20105;-83
2022/02/14 05:17:42;;;;;;;6.07;1.83;;;;;;;;;;4979493;28;20039;-83
2022/02/14 05:20:08;;;;;;;4.13;2.10;;;;;;;;;;4980334;28;20550;-82
2022/02/14 05:22:33;;;;;;;4.85;1.90;;;;;;;;;;4978166;28;20041;-79
2022/02/14 05:24:58;;;;;;;4.22;1.88;;;;;;;;;;4979241;28;20122;-80
2022/02/14 05:27:24;;;;;;;4.63;2.00;;;;;;;;;;4976828;28;20389;-82
2022/02/14 05:29:49;;;;;;;5.35;2.00;;;;;;;;;;4978927;28;20172;-83
2022/02/14 05:32:15;;;;;;;5.28;2.22;;;;;;;;;;4973712;28;20156;-85
2022/02/14 05:34:42;;;;;;;5.63;1.80;;;;;;;;;;4975057;28;20034;-79
2022/02/14 05:37:08;;;;;;;5.63;1.73;;;;;;;;;;4977985;28;20038;-82
2022/02/14 05:39:34;;;;;;;5.88;1.95;;;;;;;;;;4979346;28;20022;-83
2022/02/14 05:42:00;;;;;;;5.53;2.03;;;;;;;;;;4980762;28;20030;-83
2022/02/14 05:44:25;;;;;;;4.55;2.00;;;;;;;;;;4977990;28;20034;-81
2022/02/14 05:46:51;;;;;;;5.28;1.60;;;;;;;;;;4979936;28;20407;-85
2022/02/14 05:49:16;;;;;;;4.25;2.00;;;;;;;;;;4977108;28;20833;-83
2022/02/14 05:51:41;;;;;;;6.45;1.88;;;;;;;;;;4983422;28;20034;-82
2022/02/14 05:54:07;;;;;;;3.80;1.48;;;;;;;;;;4980895;28;20703;-85
2022/02/14 05:56:32;;;;;;;4.93;1.63;;;;;;;;;;4981536;28;20041;-85
2022/02/14 05:59:00;;;;;;;4.57;1.50;;;;;;;;;;4981749;28;20038;-86
2022/02/14 06:01:25;;;;;;;3.58;1.92;;;;;;;;;;4980214;28;20105;-82
2022/02/14 06:03:51;;;;;;;4.60;1.52;;;;;;;;;;4982644;28;20038;-82
2022/02/14 06:06:16;;;;;;;4.38;1.73;;;;;;;;;;4983523;28;20130;-84
2022/02/14 06:08:42;;;;;;;6.57;1.92;;;;;;;;;;4981863;28;20434;-82
2022/02/14 06:11:07;;;;;;;6.63;2.33;;;;;;;;;;4976900;28;20365;-82
2022/02/14 06:13:33;;;;;;;5.22;2.05;;;;;;;;;;4975179;28;20479;-83
2022/02/14 06:15:58;;;;;;;5.65;1.77;;;;;;;;;;4978285;28;20038;-81
2022/02/14 06:18:24;;;;;;;4.57;1.58;;;;;;;;;;4978442;28;21380;-82
2022/02/14 06:20:49;;;;;;;4.95;1.92;;;;;;;;;;4977311;28;20033;-82
2022/02/14 06:23:14;;;;;;;3.85;1.80;;;;;;;;;;4975497;28;20038;-83
2022/02/14 06:25:43;;;;;;;2.75;1.50;;;;;;;;;;4977807;28;20476;-78
2022/02/14 06:28:08;;;;;;;5.05;1.80;;;;;;;;;;4979147;28;20606;-83
2022/02/14 06:30:34;;;;;;;4.22;2.00;;;;;;;;;;4980147;28;20034;-83
2022/02/14 06:32:59;;;;;;;4.55;1.80;;;;;;;;;;4980469;28;20092;-82
2022/02/14 06:35:26;;;;;;;4.38;1.63;;;;;;;;;;4982316;28;20044;-83
2022/02/14 06:37:51;;;;;;;5.32;2.08;;;;;;;;;;5000200;28;20068;-82
2022/02/14 06:40:17;;;;;;;3.25;1.50;;;;;;;;;;4978331;28;20062;-82
2022/02/14 06:42:47;;;;;;;5.72;1.60;;;;;;;;;;4979059;28;20142;-84
2022/02/14 06:45:13;;;;;;;6.13;2.03;;;;;;;;;;4984906;28;20081;-83
2022/02/14 06:47:39;;;;;;;5.50;1.98;;;;;;;;;;4985046;28;20092;-83
2022/02/14 06:50:04;;;;;;;3.78;1.98;;;;;;;;;;4980741;28;20027;-79
2022/02/14 06:52:30;;;;;;;6.13;2.10;;;;;;;;;;4977525;28;20039;-81
2022/02/14 06:54:55;;;;;;;6.00;1.90;;;;;;;;;;4979021;28;20093;-83
2022/02/14 06:57:20;;;;;;;4.43;1.58;;;;;;;;;;4975228;28;20038;-81
2022/02/14 06:59:46;;;;;;;7.80;2.38;;;;;;;;;;4978160;28;20038;-85
2022/02/14 07:02:11;;;;;;;3.55;1.80;;;;;;;;;;4978195;28;20045;-84
2022/02/14 07:04:37;;;;;;;4.65;1.85;;;;;;;;;;4980096;28;20034;-84
2022/02/14 07:07:02;;;;;;;4.10;1.77;;;;;;;;;;4979489;28;20041;-83
2022/02/14 07:09:28;;;;;;;2.90;1.60;;;;;;;;;;4979409;28;20403;-85
2022/02/14 07:11:53;;;;;;;3.33;1.60;;;;;;;;;;4979027;28;20033;-79
2022/02/14 07:14:18;;;;;;;4.28;1.55;;;;;;;;;;4981490;28;20048;-84
2022/02/14 07:16:44;;;;;;;7.32;2.00;;;;;;;;;;4980137;28;20041;-84
2022/02/14 07:19:10;;;;;;;4.18;1.70;;;;;;;;;;4979733;28;20113;-83
2022/02/14 07:21:35;;;;;;;5.13;1.70;;;;;;;;;;4979336;28;20120;-82
2022/02/14 07:24:01;;;;;;;4.65;1.80;;;;;;;;;;4980042;28;20644;-82
2022/02/14 07:26:26;;;;;;;3.63;1.70;;;;;;;;;;4978661;28;20065;-84
2022/02/14 07:28:52;;;;;;;5.00;1.70;;;;;;;;;;4981179;28;20702;-83
2022/02/14 07:31:17;;;;;;;3.85;1.90;;;;;;;;;;4996861;28;20498;-80
2022/02/14 07:33:43;;;;;;;6.70;1.85;;;;;;;;;;4983560;28;20042;-83
2022/02/14 07:36:09;;;;;;;4.35;1.70;;;;;;;;;;4980912;28;20026;-79
2022/02/14 07:38:34;;;;;;;4.05;1.70;;;;;;;;;;4983751;28;20085;-85
2022/02/14 07:41:00;;;;;;;5.40;2.00;;;;;;;;;;4985536;28;20026;-86
2022/02/14 07:43:26;;;;;;;8.05;1.90;;;;;;;;;;4986348;28;20096;-84
2022/02/14 07:45:52;;;;;;;4.80;1.63;;;;;;;;;;4984609;28;20124;-85
2022/02/14 07:48:17;;;;;;;4.15;1.90;;;;;;;;;;4985349;28;20121;-79
2022/02/14 07:50:43;;;;;;;4.88;2.10;;;;;;;;;;4985266;28;20038;-82
2022/02/14 07:53:10;;;;;;;2.45;1.33;;;;;;;;;;4986781;28;20042;-84
2022/02/14 07:55:36;;;;;;;2.58;0.90;;;;;;;;;;4985919;28;20096;-83
2022/02/14 07:58:03;;;;;;;4.13;0.70;;;;;;;;;;4998325;28;20545;-86
2022/02/14 08:00:29;;;;;;;1.30;0.70;;;;;;;;;;4984760;28;20042;-83
2022/02/14 08:02:54;;;;;;;1.90;0.60;;;;;;;;;;4984510;28;20649;-82
2022/02/14 08:05:20;;;;;;;0.40;0.40;;;;;;;;;;4983970;28;20034;-79
2022/02/14 08:07:46;;;;;;;1.05;0.50;;;;;;;;;;4983666;28;20239;-84
2022/02/14 08:10:11;;;;;;;0.80;0.50;;;;;;;;;;4979583;28;20038;-85
2022/02/14 08:12:37;;;;;;;1.80;0.47;;;;;;;;;;4976411;28;20065;-83
2022/02/14 08:15:04;;;;;;;0.43;0.30;;;;;;;;;;4976991;28;20037;-80
2022/02/14 08:17:29;;;;;;;0.80;0.50;;;;;;;;;;4981468;28;20026;-84
2022/02/14 08:19:55;;;;;;;0.60;0.40;;;;;;;;;;4980694;28;20092;-84
2022/02/14 08:22:20;;;;;;;0.95;0.40;;;;;;;;;;4979421;28;20049;-80
2022/02/14 08:24:46;;;;;;;1.33;0.43;;;;;;;;;;4978363;28;20030;-84
2022/02/14 08:27:11;;;;;;;0.50;0.30;;;;;;;;;;4988436;28;20053;-82
2022/02/14 08:29:39;;;;;;;0.50;0.30;;;;;;;;;;4979140;28;20035;-83
2022/02/14 08:32:04;;;;;;;0.85;0.47;;;;;;;;;;4999331;28;20526;-84
2022/02/14 08:34:30;;;;;;;0.38;0.30;;;;;;;;;;4992309;28;20122;-83
2022/02/14 08:36:55;;;;;;;0.32;0.30;;;;;;;;;;4978371;28;20026;-83
2022/02/14 08:39:21;;;;;;;2.25;0.40;;;;;;;;;;4984819;28;20184;-84
2022/02/14 08:41:46;;;;;;;0.20;0.20;;;;;;;;;;4981396;28;20684;-84
2022/02/14 08:44:12;;;;;;;0.77;0.47;;;;;;;;;;4980572;28;20036;-83
2022/02/14 08:46:39;;;;;;;0.50;0.30;;;;;;;;;;4977103;28;20407;-84
2022/02/14 08:49:05;;;;;;;0.60;0.30;;;;;;;;;;4982490;28;20054;-83
2022/02/14 08:51:33;;;;;;;0.40;0.30;;;;;;;;;;4982434;28;20494;-83
2022/02/14 08:53:59;;;;;;;0.65;0.30;;;;;;;;;;4983233;28;20018;-80
2022/02/14 08:56:24;;;;;;;0.68;0.20;;;;;;;;;;4978163;28;20026;-84
2022/02/14 08:58:49;;;;;;;1.13;0.30;;;;;;;;;;4980939;28;20502;-80
2022/02/14 09:01:18;;;;;;;0.82;0.40;;;;;;;;;;4979644;28;20041;-83
2022/02/14 09:03:44;;;;;;;1.52;0.45;;;;;;;;;;4982885;28;20369;-83
2022/02/14 09:06:10;;;;;;;1.60;0.50;;;;;;;;;;4987825;28;20060;-84
2022/02/14 09:08:36;;;;;;;2.63;0.30;;;;;;;;;;4975674;28;20464;-81
2022/02/14 09:11:03;;;;;;;1.10;0.50;;;;;;;;;;4979688;28;20038;-83
2022/02/14 09:13:55;;;;;;;1.27;0.70;;;;;;;;;;4983018;28;20110;-84
2022/02/14 09:16:20;;;;;;;1.15;0.82;;;;;;;;;;4984889;28;20046;-82
2022/02/14 09:18:54;;;;;;;2.45;1.48;;;;;;;;;;4986675;28;20049;-84
2022/02/14 09:21:20;;;;;;;3.33;1.65;;;;;;;;;;4980571;28;20069;-81
2022/02/14 09:23:48;;;;;;;3.17;1.92;;;;;;;;;;4990118;28;20039;-78
2022/02/14 09:26:14;;;;;;;5.22;2.28;;;;;;;;;;4987002;28;20451;-82
2022/02/14 09:28:44;;;;;;;4.25;2.40;;;;;;;;;;4988236;28;20034;-84
2022/02/14 09:31:10;;;;;;;5.28;2.25;;;;;;;;;;4987589;28;20089;-78
2022/02/14 09:33:35;;;;;;;4.28;2.53;;;;;;;;;;4986068;28;20034;-78
2022/02/14 09:36:07;;;;;;;3.13;2.33;;;;;;;;;;4989581;28;20026;-79
2022/02/14 09:38:32;;;;;;;3.40;2.20;;;;;;;;;;4986019;28;20494;-83
2022/02/14 09:41:01;;;;;;;4.95;2.50;;;;;;;;;;4989660;28;20073;-82
2022/02/14 09:43:27;;;;;;;4.18;2.42;;;;;;;;;;4986729;28;20483;-79
2022/02/14 09:45:55;;;;;;;3.72;2.40;;;;;;;;;;4987713;28;20033;-83
2022/02/14 09:48:31;;;;;;;3.63;2.60;;;;;;;;;;4988938;28;20042;-84
2022/02/14 09:50:57;;;;;;;3.90;2.20;;;;;;;;;;5003903;28;20391;-86
2022/02/14 09:53:24;;;;;;;4.03;2.40;;;;;;;;;;4992539;28;20033;-79
2022/02/14 09:55:55;;;;;;;3.60;2.28;;;;;;;;;;4969131;28;20034;-84
2022/02/14 09:58:25;;;;;;;3.30;2.28;;;;;;;;;;5004437;28;20739;-83
2022/02/14 10:00:56;;;;;;;3.58;2.50;;;;;;;;;;4986442;28;20112;-83
2022/02/14 10:03:28;;;;;;;4.63;2.95;;;;;;;;;;4985623;28;20053;-83
2022/02/14 10:06:02;;;;;;;4.90;2.50;;;;;;;;;;4983774;28;20043;-79
2022/02/14 10:08:32;;;;;;;4.20;2.58;;;;;;;;;;4992257;28;20030;-86
2022/02/14 10:11:36;;;;;;;3.63;2.45;;;;;;;;;;4985908;28;20116;-83
2022/02/14 10:14:27;;;;;;;5.13;2.95;;;;;;;;;;4986124;28;20483;-79
2022/02/14 10:17:05;;;;;;;4.28;2.55;;;;;;;;;;5000103;28;20031;-83
2022/02/14 10:19:33;;;;;;;4.43;2.58;;;;;;;;;;5002896;28;20511;-83
2022/02/14 10:22:01;;;;;;;6.25;3.30;;;;;;;;;;4985752;28;20120;-83
2022/02/14 10:24:37;;;;;;;5.45;3.15;;;;;;;;;;4985472;28;20497;-87
2022/02/14 10:27:03;;;;;;;5.40;2.90;;;;;;;;;;4981863;28;20043;-85
2022/02/14 10:29:31;;;;;;;5.32;2.97;;;;;;;;;;4991400;28;20072;-85
2022/02/14 10:32:11;;;;;;;5.50;2.90;;;;;;;;;;4988219;28;20039;-83
2022/02/14 10:35:07;;;;;;;4.20;2.50;;;;;;;;;;5001030;28;20018;-78
2022/02/14 10:38:03;;;;;;;5.50;1.92;;;;;;;;;;4983845;28;20050;-83
2022/02/14 10:40:38;;;;;;;3.58;2.20;;;;;;;;;;4973687;28;20394;-83
2022/02/14 10:43:04;;;;;;;4.40;2.20;;;;;;;;;;5003598;28;20033;-83
2022/02/14 10:45:36;;;;;;;3.50;2.25;;;;;;;;;;4987942;28;20018;-84
2022/02/14 10:48:14;;;;;;;4.47;2.30;;;;;;;;;;4982630;28;20470;-78
2022/02/14 10:50:39;;;;;;;4.90;2.38;;;;;;;;;;5001963;28;20038;-85
2022/02/14 10:53:05;;;;;;;6.20;2.50;;;;;;;;;;4987983;28;20053;-82
2022/02/14 10:55:42;;;;;;;4.60;2.20;;;;;;;;;;5004600;28;20034;-85
2022/02/14 10:58:08;;;;;;;5.00;2.45;;;;;;;;;;5002453;28;20032;-82
2022/02/14 11:00:38;;;;;;;6.13;3.00;;;;;;;;;;4990426;28;20042;-85
2022/02/14 11:03:09;;;;;;;9.52;3.03;;;;;;;;;;5003084;28;20026;-80
2022/02/14 11:05:38;;;;;;;4.10;2.58;;;;;;;;;;4991846;28;20058;-83
2022/02/14 11:08:04;;;;;;;6.85;2.95;;;;;;;;;;5004963;28;20033;-82
2022/02/14 11:10:31;;;;;;;5.25;3.17;;;;;;;;;;4987967;28;20446;-85
2022/02/14 11:12:59;;;;;;;4.88;2.90;;;;;;;;;;5000237;28;20038;-82
2022/02/14 11:15:30;;;;;;;4.95;2.90;;;;;;;;;;4986042;28;20486;-85
2022/02/14 11:18:01;;;;;;;6.00;3.33;;;;;;;;;;4999608;28;20133;-85
2022/02/14 11:20:27;;;;;;;6.32;3.30;;;;;;;;;;4983855;28;20054;-79
2022/02/14 11:22:55;;;;;;;5.80;3.08;;;;;;;;;;4980744;28;20470;-80
2022/02/14 11:25:32;;;;;;;6.65;2.70;;;;;;;;;;4977908;28;20023;-82
2022/02/14 11:28:36;;;;;;;7.30;3.00;;;;;;;;;;4994741;28;20050;-85
2022/02/14 11:31:28;;;;;;;6.63;3.10;;;;;;;;;;4981741;28;20031;-79
2022/02/14 11:33:56;;;;;;;4.47;2.70;;;;;;;;;;4973631;28;20062;-80
2022/02/14 11:36:24;;;;;;;8.68;3.08;;;;;;;;;;4994091;28;20030;-84
2022/02/14 11:38:56;;;;;;;4.20;2.72;;;;;;;;;;4978500;28;20509;-78
2022/02/14 11:41:40;;;;;;;4.13;2.80;;;;;;;;;;4982470;28;20058;-83
2022/02/14 11:44:15;;;;;;;7.50;2.95;;;;;;;;;;4979163;28;20042;-82
2022/02/14 11:46:53;;;;;;;6.18;2.97;;;;;;;;;;4983065;28;20057;-82
2022/02/14 11:49:22;;;;;;;5.43;2.70;;;;;;;;;;4982415;28;20022;-84
2022/02/14 11:51:53;;;;;;;7.05;3.10;;;;;;;;;;4982004;28;20153;-79
2022/02/14 11:54:40;;;;;;;5.95;3.17;;;;;;;;;;4997249;28;20026;-83
2022/02/14 11:57:14;;;;;;;6.90;2.70;;;;;;;;;;4980878;28;20463;-81
2022/02/14 11:59:41;;;;;;;6.40;2.90;;;;;;;;;;4979927;28;20026;-82
2022/02/14 12:02:07;;;;;;;4.65;2.78;;;;;;;;;;4997937;28;20038;-83
2022/02/14 12:04:36;;;;;;;3.80;2.38;;;;;;;;;;4979802;28;20499;-85
2022/02/14 12:07:20;;;;;;;2.38;1.80;;;;;;;;;;4981622;28;20056;-83
2022/02/14 12:09:58;;;;;;;4.78;2.03;;;;;;;;;;4996430;28;20034;-83
2022/02/14 12:12:46;;;;;;;3.60;2.17;;;;;;;;;;4980713;28;20035;-82
2022/02/14 12:20:47;;;;;;;4.70;2.00;;;;;;;;;;4982330;28;20089;-84
2022/02/14 12:23:13;;;;;;;3.55;1.67;;;;;;;;;;4981205;28;20486;-84
2022/02/14 12:25:49;;;;;;;4.43;1.50;;;;;;;;;;4982390;28;20113;-83
2022/02/14 12:28:14;;;;;;;5.50;1.70;;;;;;;;;;4985088;28;20521;-82
2022/02/14 12:30:41;;;;;;;4.93;1.08;;;;;;;;;;4982988;28;20026;-82
2022/02/14 12:33:08;;;;;;;6.70;1.42;;;;;;;;;;4980524;28;20105;-82
2022/02/14 12:35:36;;;;;;;4.78;1.45;;;;;;;;;;4980963;28;20045;-82
2022/02/14 12:38:03;;;;;;;4.55;1.50;;;;;;;;;;4984488;28;20517;-82
2022/02/14 12:40:48;;;;;;;6.35;1.80;;;;;;;;;;4985246;28;20407;-82
2022/02/14 12:43:26;;;;;;;8.63;2.50;;;;;;;;;;4985913;28;20534;-84
2022/02/14 12:45:53;;;;;;;5.75;2.13;;;;;;;;;;4985139;28;20038;-85
2022/02/14 12:48:52;;;;;;;4.65;1.65;;;;;;;;;;4984211;28;20104;-80
2022/02/14 12:51:22;;;;;;;3.67;1.70;;;;;;;;;;4961861;28;20038;-85
2022/02/14 12:53:52;;;;;;;4.47;1.80;;;;;;;;;;4985114;28;20078;-84
2022/02/14 12:56:20;;;;;;;4.85;1.60;;;;;;;;;;4998706;28;20489;-79
2022/02/14 12:58:46;;;;;;;3.28;1.65;;;;;;;;;;4986260;28;20030;-82
2022/02/14 13:01:12;;;;;;;5.07;1.65;;;;;;;;;;4993301;28;20029;-85
2022/02/14 13:03:37;;;;;;;6.10;2.08;;;;;;;;;;4984263;28;20057;-82
2022/02/14 13:06:03;;;;;;;5.85;1.90;;;;;;;;;;4991410;28;20026;-84
2022/02/14 13:08:29;;;;;;;5.88;2.00;;;;;;;;;;4990615;28;20556;-80
2022/02/14 13:10:55;;;;;;;4.80;1.80;;;;;;;;;;4991285;28;20061;-82
2022/02/14 13:13:33;;;;;;;5.05;1.90;;;;;;;;;;4986141;28;20034;-82
2022/02/14 13:16:06;;;;;;;4.78;1.67;;;;;;;;;;4986982;28;20034;-84
2022/02/14 13:18:44;;;;;;;5.45;1.98;;;;;;;;;;5004120;28;20030;-82
2022/02/14 13:21:10;;;;;;;4.80;1.88;;;;;;;;;;4987021;28;20030;-85
2022/02/14 13:23:36;;;;;;;4.25;1.70;;;;;;;;;;4985033;28;20507;-86
2022/02/14 13:26:02;;;;;;;7.30;2.00;;;;;;;;;;4990540;28;20062;-86
2022/02/14 13:28:28;;;;;;;6.22;2.00;;;;;;;;;;5003095;28;20037;-84
2022/02/14 13:30:53;;;;;;;4.32;1.63;;;;;;;;;;4981631;28;20369;-81
2022/02/14 13:33:26;;;;;;;3.05;1.50;;;;;;;;;;4990330;28;20030;-79
2022/02/14 13:36:02;;;;;;;3.72;1.67;;;;;;;;;;5004278;28;20038;-82
2022/02/14 13:38:36;;;;;;;4.18;1.52;;;;;;;;;;4985557;28;20062;-85
2022/02/14 13:41:03;;;;;;;4.28;1.38;;;;;;;;;;4990761;28;20027;-83
2022/02/14 13:43:33;;;;;;;4.35;1.40;;;;;;;;;;4984363;28;20109;-85
2022/02/14 13:46:00;;;;;;;4.30;1.40;;;;;;;;;;5003907;28;20038;-85
2022/02/14 13:48:26;;;;;;;5.28;1.70;;;;;;;;;;4988142;28;20521;-85
2022/02/14 13:50:54;;;;;;;5.35;1.65;;;;;;;;;;4988610;28;20060;-83
2022/02/14 13:53:29;;;;;;;3.38;1.15;;;;;;;;;;5003332;28;20577;-84
2022/02/14 13:56:15;;;;;;;4.43;1.30;;;;;;;;;;4986606;28;20479;-84
2022/02/14 13:58:55;;;;;;;5.10;1.52;;;;;;;;;;4987900;28;20369;-84
2022/02/14 14:01:30;;;;;;;4.32;1.33;;;;;;;;;;4985384;28;20598;-81
2022/02/14 14:03:59;;;;;;;4.15;1.33;;;;;;;;;;4987510;28;20034;-85
2022/02/14 14:06:27;;;;;;;4.80;1.20;;;;;;;;;;4990104;28;20037;-85
2022/02/14 14:08:53;;;;;;;6.10;1.55;;;;;;;;;;4986206;28;20390;-85
2022/02/14 14:11:35;;;;;;;6.22;1.23;;;;;;;;;;4982788;28;20479;-82
2022/02/14 14:14:04;;;;;;;5.15;1.10;;;;;;;;;;4988135;28;20042;-84
2022/02/14 14:16:32;;;;;;;5.25;1.10;;;;;;;;;;4985562;28;20068;-85
2022/02/14 14:18:58;;;;;;;6.40;1.75;;;;;;;;;;4984942;28;20640;-84
2022/02/14 14:21:24;;;;;;;6.80;1.20;;;;;;;;;;4986173;28;20058;-83
2022/02/14 14:23:51;;;;;;;3.47;1.05;;;;;;;;;;4989217;28;20058;-81
2022/02/14 14:26:20;;;;;;;3.00;0.98;;;;;;;;;;4988636;28;20051;-78
2022/02/14 14:28:46;;;;;;;5.05;1.27;;;;;;;;;;4984184;28;20057;-86
2022/02/14 14:31:12;;;;;;;4.60;0.90;;;;;;;;;;4985658;28;20069;-84
2022/02/14 14:33:38;;;;;;;7.10;1.23;;;;;;;;;;4986225;28;20479;-84
2022/02/14 14:36:04;;;;;;;5.82;1.20;;;;;;;;;;4987182;28;20045;-79
2022/02/14 14:38:37;;;;;;;8.00;1.40;;;;;;;;;;4987016;28;20029;-84
2022/02/14 14:41:03;;;;;;;6.28;1.60;;;;;;;;;;4987565;28;20062;-81
2022/02/14 14:43:30;;;;;;;5.47;1.40;;;;;;;;;;4984153;28;20112;-85
2022/02/14 14:45:56;;;;;;;5.32;1.30;;;;;;;;;;4984987;28;20120;-79
2022/02/14 14:48:22;;;;;;;7.07;1.30;;;;;;;;;;4989130;28;20066;-84
2022/02/14 14:50:48;;;;;;;5.68;1.40;;;;;;;;;;4984306;28;20034;-82
2022/02/14 14:53:13;;;;;;;6.95;1.30;;;;;;;;;;4983065;28;20387;-81